Latest Weather Observations for Strathalbyn

IDS60901

Issued at 1:05 pm CST Thursday 31 July 2014 (issued every 10 minutes, with the page automatically refreshed every 10 minutes)

About weather observations | Map of Adelaide area stations | Latest observations for Adelaide area | Other Formats
Station Details ID: 024580 Name: STRATHALBYN RACECOURSE Lat: -35.28 Lon: 138.89 Height: 58.0 m
Data from the previous 72 hours. | See also: Recent months at Strathalbyn
Date/Time
CST
Tmp

°C
App
Tmp
°C
Dew
Point
°C
Rel
Hum
%
Delta-T

°C
Wind Press
QNH
hPa
Press
MSL
hPa
Rain
since
9 am
mm
Dir
 
Spd
km/h
Gust
km/h
Spd
kts
Gust
kts
31/01:00pm 11.8 6.5 9.7 87 1.1 WSW 28 43 15 23 1002.7 - 0.6
31/12:30pm 11.1 3.7 8.5 84 1.3 WSW 37 52 20 28 1002.6 - 0.2
31/12:16pm 11.4 3.6 8.4 82 1.5 WSW 39 57 21 31 1002.3 - 0.2
31/12:00pm 14.1 5.4 9.9 76 2.2 W 46 82 25 44 1001.3 1001.4 0.0
31/11:30am 15.1 4.8 8.1 63 3.5 NNW 52 80 28 43 1000.6 - 0.0
31/11:00am 15.9 3.2 8.6 62 3.7 NNW 65 96 35 52 1000.3 - 0.0
31/10:30am 15.9 3.9 8.4 61 3.8 N 61 87 33 47 1000.4 - 0.0
31/10:00am 15.5 4.3 8.5 63 3.6 N 57 83 31 45 1000.4 - 0.0
31/09:30am 15.0 4.7 8.3 64 3.4 N 52 87 28 47 1000.9 - 0.0
31/09:00am 14.5 3.5 8.5 67 3.0 N 56 83 30 45 1001.7 1001.8 0.0
31/08:30am 14.0 3.3 8.2 68 2.9 N 54 74 29 40 1002.1 - 0.0
31/08:14am 14.1 3.5 8.3 68 2.9 N 54 91 29 49 1001.8 - 0.0
31/08:00am 13.8 4.3 8.2 69 2.8 N 48 70 26 38 1002.0 - 0.0
31/07:30am 13.1 4.2 7.8 70 2.6 N 44 70 24 38 1002.1 - 0.0
31/07:00am 13.4 4.1 7.4 67 2.9 N 46 70 25 38 1002.3 - 0.0
31/06:30am 13.5 3.7 7.1 65 3.1 N 48 69 26 37 1002.8 - 0.0
31/06:00am 13.3 3.0 6.6 64 3.2 N 50 72 27 39 1002.8 1002.9 0.0
31/05:30am 13.7 4.2 6.8 63 3.3 N 46 65 25 35 1002.7 - 0.0
31/05:00am 14.1 3.8 6.7 61 3.6 N 50 74 27 40 1003.0 - 0.0
31/04:30am 14.0 3.7 6.6 61 3.6 N 50 69 27 37 1003.0 - 0.0
31/04:00am 14.2 4.3 6.6 60 3.7 N 48 72 26 39 1003.2 - 0.0
31/03:30am 14.4 3.3 6.5 59 3.8 N 54 82 29 44 1003.5 - 0.0
31/03:00am 14.3 3.9 6.2 58 3.9 N 50 70 27 38 1004.0 1004.0 0.0
31/02:57am 14.3 3.9 6.2 58 3.9 N 50 83 27 45 1004.0 - 0.0
31/02:56am 14.4 3.2 6.0 57 4.0 N 54 83 29 45 1004.1 - 0.0
31/02:30am 14.6 3.4 5.9 56 4.2 NW 54 74 29 40 1004.7 - 0.0
31/02:00am 14.4 4.4 6.3 58 3.9 NW 48 74 26 40 1005.5 - 0.0
31/01:30am 14.6 6.7 6.4 58 4.0 NNW 37 61 20 33 1006.4 - 0.0
31/01:00am 14.7 7.8 6.5 58 4.0 NW 32 50 17 27 1007.2 - 0.0
31/12:38am 15.2 9.1 6.5 56 4.2 NNW 28 46 15 25 1007.8 - 0.0
31/12:30am 15.2 10.2 6.5 56 4.2 NNW 22 43 12 23 1008.0 - 0.0
31/12:00am 15.2 11.1 6.2 55 4.4 NW 17 37 9 20 1008.7 1008.7 0.0
 
Date/Time
CST
Tmp

°C
App
Tmp
°C
Dew
Point
°C
Rel
Hum
%
Delta-T

°C
Wind Press
QNH
hPa
Press
MSL
hPa
Rain
since
9 am
mm
Dir
 
Spd
km/h
Gust
km/h
Spd
kts
Gust
kts
30/11:30pm 15.2 12.3 6.7 57 4.2 WNW 11 22 6 12 1009.4 - 0.0
30/11:00pm 15.0 11.9 7.3 60 3.8 E 13 22 7 12 1010.1 - 0.0
30/10:30pm 15.3 12.7 7.6 60 3.8 N 11 17 6 9 1010.7 - 0.0
30/10:00pm 15.3 11.1 8.3 63 3.5 NNW 20 33 11 18 1011.3 - 0.0
30/09:30pm 15.6 11.6 8.4 62 3.7 NNW 19 30 10 16 1011.7 - 0.0
30/09:00pm 15.6 12.3 9.5 67 3.2 NNW 17 32 9 17 1012.1 1012.1 0.0
30/08:30pm 15.2 11.3 9.6 69 2.9 NNW 20 28 11 15 1012.6 - 0.0
30/08:00pm 14.8 11.5 9.6 71 2.7 NNW 17 28 9 15 1012.8 - 0.0
30/07:30pm 14.7 11.4 9.7 72 2.6 NNW 17 26 9 14 1013.2 - 0.0
30/07:00pm 14.9 11.6 9.7 71 2.7 NNW 17 32 9 17 1013.3 - 0.0
30/06:30pm 14.6 11.0 9.8 73 2.5 NNW 19 35 10 19 1013.3 - 0.0
30/06:00pm 14.9 10.0 10.1 73 2.5 NNW 26 37 14 20 1013.1 1013.1 0.0
30/05:30pm 14.9 10.8 10.1 73 2.5 NNW 22 37 12 20 1013.1 - 0.0
30/05:00pm 15.2 11.1 10.2 72 2.6 NNW 22 33 12 18 1013.1 - 0.0
30/04:30pm 15.5 11.2 10.7 73 2.5 NNW 24 39 13 21 1013.2 - 0.0
30/04:00pm 15.6 11.3 10.8 73 2.6 NNW 24 35 13 19 1013.3 - 0.0
30/03:30pm 15.9 11.6 10.7 71 2.8 NW 24 39 13 21 1013.5 - 0.0
30/03:09pm 16.2 11.0 10.3 68 3.1 NW 28 52 15 28 1013.6 - 0.0
30/03:00pm 16.1 11.8 10.6 70 2.9 NW 24 35 13 19 1013.6 1013.6 0.0
30/02:30pm 15.8 10.6 10.3 70 2.9 NW 28 46 15 25 1013.9 - 0.0
30/02:27pm 15.8 10.6 10.1 69 3.0 NW 28 46 15 25 1013.9 - 0.0
30/02:00pm 16.0 11.3 10.5 70 2.9 NW 26 37 14 20 1014.1 - 0.0
30/01:30pm 16.1 11.8 10.6 70 2.9 NW 24 37 13 20 1014.3 - 0.0
30/01:00pm 16.5 10.4 10.6 68 3.1 WNW 33 46 18 25 1014.8 - 0.0
30/12:30pm 16.3 10.4 11.0 71 2.8 NW 33 52 18 28 1015.1 - 0.0
30/12:00pm 16.4 10.2 10.0 66 3.4 WNW 33 52 18 28 1015.5 1015.6 0.0
30/11:54am 16.7 10.1 10.1 65 3.5 NW 35 54 19 29 1015.6 - 0.0
30/11:46am 16.7 9.4 10.1 65 3.5 NW 39 50 21 27 1015.6 - 0.0
30/11:30am 16.9 11.2 9.8 63 3.7 WNW 30 44 16 24 1015.8 - 0.0
30/11:05am 16.3 10.8 10.6 69 3.0 WNW 30 48 16 26 1016.1 - 0.0
30/11:00am 16.1 10.2 10.4 69 3.0 WNW 32 48 17 26 1016.1 - 0.0
30/10:32am 15.8 10.5 9.9 68 3.1 WNW 28 48 15 26 1016.4 - 0.0
30/10:30am 15.9 10.7 10.4 70 2.9 WNW 28 37 15 20 1016.5 - 0.0
30/10:00am 15.1 9.2 10.5 74 2.4 WNW 32 50 17 27 1016.8 - 0.0
30/09:53am 15.0 9.8 10.4 74 2.4 WNW 28 50 15 27 1016.9 - 0.0
30/09:30am 15.0 10.3 10.8 76 2.2 WNW 26 39 14 21 1016.8 - 0.0
30/09:00am 14.7 9.6 10.5 76 2.2 WNW 28 43 15 23 1016.7 1016.8 1.2
30/08:30am 14.4 8.8 10.2 76 2.2 WNW 30 50 16 27 1016.5 - 1.2
30/08:28am 14.5 8.9 10.1 75 2.3 NW 30 50 16 27 1016.4 - 1.2
30/08:00am 14.4 9.1 10.0 75 2.3 NW 28 43 15 23 1016.5 - 1.2
30/07:30am 13.9 6.9 10.1 78 2.0 NW 37 56 20 30 1016.5 - 1.2
30/07:21am 14.0 7.1 10.2 78 2.0 NW 37 56 20 30 1016.3 - 1.2
30/07:00am 13.9 7.4 10.3 79 1.9 NW 35 46 19 25 1015.8 - 1.2
30/06:30am 13.5 7.8 9.7 78 2.0 NW 30 41 16 22 1015.7 - 1.2
30/06:24am 13.7 7.6 9.9 78 2.0 WNW 32 50 17 27 1015.7 - 1.2
30/06:00am 13.7 7.9 9.6 76 2.1 WNW 30 39 16 21 1015.4 1015.5 1.2
30/05:41am 13.8 7.7 9.8 77 2.1 WNW 32 50 17 27 1015.2 - 1.2
30/05:30am 13.5 7.4 9.9 79 1.9 WNW 32 44 17 24 1015.2 - 1.2
30/05:00am 13.6 7.9 9.8 78 2.0 WNW 30 43 16 23 1015.1 - 1.2
30/04:30am 13.9 7.6 9.7 76 2.2 WNW 33 46 18 25 1015.1 - 1.2
30/04:00am 14.1 8.3 9.5 74 2.4 WNW 30 43 16 23 1015.5 - 1.2
30/03:30am 14.5 8.7 9.5 72 2.6 W 30 50 16 27 1016.0 - 1.2
30/03:00am 14.3 8.1 9.9 75 2.3 WNW 33 52 18 28 1015.8 1015.9 1.2
30/02:31am 14.4 7.9 10.4 77 2.1 WNW 35 56 19 30 1015.8 - 1.2
30/02:30am 14.2 8.0 10.2 77 2.1 WNW 33 48 18 26 1015.9 - 1.2
30/02:05am 14.1 7.8 9.7 75 2.3 WNW 33 52 18 28 1016.0 - 1.2
30/02:00am 14.3 7.7 9.9 75 2.3 WNW 35 52 19 28 1016.0 - 1.2
30/01:51am 14.2 8.1 9.8 75 2.3 WNW 32 50 17 27 1016.0 - 1.2
30/01:30am 14.4 8.2 10.0 75 2.3 WNW 33 46 18 25 1016.3 - 1.2
30/01:00am 14.6 8.4 10.2 75 2.3 WNW 33 46 18 25 1016.5 - 1.2
30/12:30am 14.6 8.7 10.4 76 2.2 WNW 32 44 17 24 1016.6 - 1.2
30/12:00am 14.5 9.3 10.3 76 2.2 WNW 28 41 15 22 1016.6 1016.7 1.2
 
Date/Time
CST
Tmp

°C
App
Tmp
°C
Dew
Point
°C
Rel
Hum
%
Delta-T

°C
Wind Press
QNH
hPa
Press
MSL
hPa
Rain
since
9 am
mm
Dir
 
Spd
km/h
Gust
km/h
Spd
kts
Gust
kts
29/11:30pm 14.2 8.6 10.2 77 2.1 WNW 30 44 16 24 1016.7 - 1.2
29/11:00pm 14.4 9.7 10.8 79 1.9 W 26 39 14 21 1017.1 - 1.2
29/10:30pm 14.5 8.6 11.1 80 1.8 WNW 33 52 18 28 1016.6 - 1.0
29/10:17pm 14.6 8.9 11.2 80 1.8 WNW 32 50 17 27 1016.6 - 1.0
29/10:00pm 13.9 10.5 11.4 85 1.3 WNW 20 30 11 16 1016.8 - 1.0
29/09:30pm 13.8 9.7 11.3 85 1.3 W 24 37 13 20 1016.9 - 0.8
29/09:00pm 14.9 9.5 10.9 77 2.1 W 30 50 16 27 1016.5 1016.6 0.4
29/08:34pm 14.8 9.4 11.0 78 2.0 WNW 30 50 16 27 1016.3 - 0.4
29/08:30pm 14.8 9.4 11.0 78 2.0 WNW 30 44 16 24 1016.3 - 0.4
29/08:00pm 14.6 9.2 11.0 79 1.9 WNW 30 41 16 22 1016.1 - 0.4
29/07:30pm 14.4 9.7 10.8 79 1.9 W 26 35 14 19 1015.9 - 0.4
29/07:05pm 14.0 8.6 10.8 81 1.7 W 30 48 16 26 1015.8 - 0.4
29/07:00pm 14.1 8.3 10.9 81 1.7 W 32 48 17 26 1015.8 - 0.4
29/06:30pm 14.4 9.2 11.7 84 1.5 W 30 44 16 24 1015.5 - 0.4
29/06:00pm 14.3 9.5 11.6 84 1.4 WNW 28 44 15 24 1015.4 1015.5 0.0
29/05:30pm 14.7 8.8 11.3 80 1.8 WNW 33 52 18 28 1014.8 - 0.0
29/05:01pm 15.0 9.7 11.2 78 2.0 WNW 30 48 16 26 1014.8 - 0.0
29/05:00pm 15.0 9.3 11.2 78 2.0 WNW 32 48 17 26 1014.8 - 0.0
29/04:50pm 15.3 10.4 11.3 77 2.1 W 28 46 15 25 1014.7 - 0.0
29/04:30pm 15.2 10.1 11.8 80 1.8 W 30 44 16 24 1014.7 - 0.0
29/04:05pm 15.3 9.7 11.5 78 2.0 W 32 52 17 28 1014.4 - 0.0
29/04:00pm 15.2 10.0 11.6 79 1.9 WNW 30 43 16 23 1014.4 - 0.0
29/03:30pm 15.5 10.3 11.7 78 2.1 WNW 30 44 16 24 1014.1 - 0.0
29/03:11pm 16.1 10.3 11.5 74 2.5 WNW 33 54 18 29 1013.9 - 0.0
29/03:00pm 15.7 10.0 11.3 75 2.4 WNW 32 46 17 25 1014.0 1014.0 0.0
29/02:30pm 15.8 9.8 10.8 72 2.7 WNW 33 52 18 28 1013.7 - 0.0
29/02:00pm 16.8 10.5 11.1 69 3.1 WNW 35 54 19 29 1013.5 - 0.0
29/01:30pm 16.5 10.1 10.6 68 3.1 WNW 35 54 19 29 1013.3 - 0.0
29/01:00pm 16.6 9.8 10.7 68 3.2 WNW 37 65 20 35 1013.1 - 0.0
29/12:30pm 15.7 9.0 11.1 74 2.5 WNW 37 69 20 37 1013.4 - 0.0
29/12:00pm 16.2 8.7 10.7 70 2.9 WNW 41 72 22 39 1013.5 1013.5 0.0
29/11:30am 15.9 7.8 10.7 71 2.8 WNW 44 70 24 38 1014.1 - 0.0
29/11:02am 16.0 9.3 9.7 66 3.3 WNW 35 57 19 31 1014.0 - 0.0
29/11:00am 16.0 9.4 9.9 67 3.2 WNW 35 50 19 27 1014.0 - 0.0
29/10:30am 16.2 9.6 10.1 67 3.2 WNW 35 54 19 29 1014.1 - 0.0
29/10:00am 15.8 8.8 10.1 69 3.0 WNW 37 56 20 30 1014.1 - 0.0
29/09:30am 15.1 8.9 9.9 71 2.7 WNW 33 54 18 29 1014.0 - 0.0
29/09:00am 14.6 8.5 9.8 73 2.5 WNW 32 59 17 32 1014.2 1014.3 0.0
29/08:39am 14.2 7.2 9.8 75 2.3 WNW 37 59 20 32 1013.9 - 0.0
29/08:30am 14.3 8.7 10.1 76 2.2 WNW 30 46 16 25 1013.9 - 0.0
29/08:02am 13.6 6.9 9.6 77 2.1 WNW 35 61 19 33 1013.3 - 0.0
29/08:00am 13.5 6.8 9.7 78 2.0 WNW 35 50 19 27 1013.2 - 0.0
29/07:30am 13.3 6.2 9.4 77 2.0 WNW 37 59 20 32 1013.3 - 0.0
29/07:07am 13.2 6.4 9.1 76 2.1 WNW 35 54 19 29 1013.5 - 0.0
29/07:00am 13.2 6.0 9.1 76 2.1 WNW 37 54 20 29 1013.2 - 0.0
29/06:40am 12.9 7.0 9.0 77 2.0 WNW 30 48 16 26 1013.4 - 0.0
29/06:30am 13.1 6.6 9.0 76 2.1 WNW 33 48 18 26 1013.4 - 0.0
29/06:22am 12.9 7.4 9.0 77 2.0 WNW 28 48 15 26 1013.3 - 0.0
29/06:00am 12.9 6.9 8.6 75 2.2 NW 30 46 16 25 1013.1 1013.1 0.0
29/05:30am 13.1 5.8 8.8 75 2.2 WNW 37 56 20 30 1013.6 - 0.0
29/05:00am 12.7 6.6 8.4 75 2.1 WNW 30 50 16 27 1013.3 - 0.0
29/04:51am 12.8 6.3 8.3 74 2.2 WNW 32 50 17 27 1013.2 - 0.0
29/04:30am 13.0 6.3 8.3 73 2.3 WNW 33 48 18 26 1012.7 - 0.0
29/04:02am 13.2 5.7 8.1 71 2.5 WNW 37 56 20 30 1012.7 - 0.0
29/04:00am 13.3 5.5 8.2 71 2.5 WNW 39 56 21 30 1012.6 - 0.0
29/03:30am 13.4 6.3 8.0 70 2.7 WNW 35 57 19 31 1012.6 - 0.0
29/03:00am 13.5 6.4 7.9 69 2.8 WNW 35 57 19 31 1012.2 1012.2 0.0
29/02:30am 13.8 7.2 7.8 67 3.0 WNW 32 54 17 29 1012.6 - 0.0
29/02:15am 13.8 7.2 7.8 67 3.0 WNW 32 50 17 27 1012.8 - 0.0
29/02:00am 13.8 7.9 7.6 66 3.1 WNW 28 43 15 23 1013.0 - 0.0
29/01:42am 13.8 7.9 7.3 65 3.2 WNW 28 46 15 25 1013.0 - 0.0
29/01:30am 13.8 9.3 7.1 64 3.3 WNW 20 33 11 18 1013.3 - 0.0
29/01:00am 14.0 9.1 7.1 63 3.4 WNW 22 39 12 21 1013.7 - 0.0
29/12:30am 13.7 9.3 6.6 62 3.4 WNW 19 35 10 19 1014.0 - 0.0
29/12:00am 14.1 9.4 6.2 59 3.8 WNW 20 37 11 20 1014.5 1014.6 0.0
 
Date/Time
CST
Tmp

°C
App
Tmp
°C
Dew
Point
°C
Rel
Hum
%
Delta-T

°C
Wind Press
QNH
hPa
Press
MSL
hPa
Rain
since
9 am
mm
Dir
 
Spd
km/h
Gust
km/h
Spd
kts
Gust
kts
28/11:30pm 14.2 8.0 6.1 58 3.9 WNW 28 44 15 24 1014.4 - 0.0
28/11:00pm 13.7 9.1 6.6 62 3.4 WNW 20 32 11 17 1014.8 - 0.0
28/10:30pm 13.7 8.7 6.6 62 3.4 WNW 22 37 12 20 1015.0 - 0.0
28/10:00pm 14.1 9.1 6.5 60 3.7 WNW 22 35 12 19 1015.1 - 0.0
28/09:43pm 14.6 8.5 6.4 58 4.0 WNW 28 48 15 26 1015.1 - 0.0
28/09:30pm 14.2 9.2 6.3 59 3.8 WNW 22 37 12 20 1015.1 - 0.0
28/09:00pm 14.5 9.9 6.6 59 3.8 WNW 20 35 11 19 1015.2 1015.3 0.0
28/08:30pm 13.4 10.4 7.6 68 2.9 WNW 13 20 7 11 1015.2 - 0.0
28/08:00pm 13.5 10.2 7.9 69 2.8 WNW 15 24 8 13 1015.0 - 0.0
28/07:30pm 13.7 9.7 8.1 69 2.8 WNW 19 28 10 15 1015.0 - 0.0
28/07:00pm 13.6 10.0 8.2 70 2.7 NW 17 28 9 15 1014.8 - 0.0
28/06:30pm 13.2 10.8 8.7 74 2.3 WNW 11 24 6 13 1014.9 - 0.0
28/06:00pm 14.0 11.0 9.2 73 2.4 NW 15 28 8 15 1014.5 1014.6 0.0
28/05:30pm 14.0 10.0 9.2 73 2.5 NW 20 37 11 20 1014.7 - 0.0
28/05:00pm 14.3 9.5 8.7 69 2.8 NW 24 37 13 20 1014.5 - 0.0
28/04:30pm 15.2 10.7 8.4 64 3.4 WNW 22 33 12 18 1014.0 - 0.0
28/04:00pm 15.6 10.7 8.6 63 3.6 NW 24 33 13 18 1013.8 - 0.0
28/03:30pm 15.6 9.4 9.5 67 3.2 NW 32 46 17 25 1014.0 - 0.0
28/03:00pm 16.0 10.2 9.4 65 3.4 WNW 30 39 16 21 1014.3 1014.4 0.0
28/02:30pm 16.3 11.9 10.4 68 3.1 WNW 24 39 13 21 1014.3 - 0.0
28/02:00pm 16.1 11.2 9.8 66 3.3 WNW 26 41 14 22 1014.6 - 0.0
28/01:30pm 16.1 12.0 8.8 62 3.7 WNW 20 32 11 17 1015.0 - 0.0

Latest Capital City Observations: Canberra | Sydney | Melbourne | Brisbane | Adelaide | Perth | Hobart | Darwin

Other Formats:

Comma delimited format used in spreadsheet applications
http://www.bom.gov.au/fwo/IDS60901/IDS60901.94814.axf

JavaScript Object Notation format (JSON) in row-major order
http://www.bom.gov.au/fwo/IDS60901/IDS60901.94814.json